createdAt,value
2023-04-02T00:04:43.040Z,8.19
2023-04-02T00:10:02.870Z,8.19
2023-04-02T00:15:21.599Z,8.19
2023-04-02T00:20:40.261Z,8.13
2023-04-02T00:25:58.977Z,8.06
2023-04-02T00:31:17.461Z,8.06
2023-04-02T00:36:37.170Z,7.94
2023-04-02T00:41:56.059Z,7.87
2023-04-02T00:47:14.317Z,7.81
2023-04-02T00:52:32.656Z,7.75
2023-04-02T00:57:51.374Z,7.69
2023-04-02T01:03:10.113Z,7.62
2023-04-02T01:08:28.807Z,7.62
2023-04-02T01:13:47.586Z,7.56
2023-04-02T01:19:05.912Z,7.56
2023-04-02T01:24:25.437Z,7.56
2023-04-02T01:29:44.159Z,7.56
2023-04-02T01:35:02.613Z,7.62
2023-04-02T01:40:20.800Z,7.69
2023-04-02T01:45:39.143Z,7.62
2023-04-02T01:50:58.843Z,7.62
2023-04-02T01:56:17.618Z,7.62
2023-04-02T02:01:36.261Z,7.62
2023-04-02T02:06:54.875Z,7.62
2023-04-02T02:12:13.477Z,7.62
2023-04-02T02:17:32.228Z,7.62
2023-04-02T02:22:50.606Z,7.62
2023-04-02T02:28:09.330Z,7.62
2023-04-02T02:33:28.118Z,7.62
2023-04-02T02:38:46.420Z,7.62
2023-04-02T02:44:04.964Z,7.69
2023-04-02T02:49:23.697Z,7.69
2023-04-02T02:54:41.887Z,7.69
2023-04-02T03:00:02.696Z,7.69
2023-04-02T03:05:21.437Z,7.62
2023-04-02T03:10:40.256Z,7.62
2023-04-02T03:15:58.647Z,7.62
2023-04-02T03:21:17.082Z,7.62
2023-04-02T03:26:35.792Z,7.62
2023-04-02T03:31:54.410Z,7.62
2023-04-02T03:37:13.293Z,7.56
2023-04-02T03:42:31.777Z,7.56
2023-04-02T03:47:50.447Z,7.56
2023-04-02T03:53:08.904Z,7.56
2023-04-02T03:58:27.448Z,7.56
2023-04-02T04:03:46.150Z,7.56
2023-04-02T04:09:05.036Z,7.56
2023-04-02T04:14:23.712Z,7.56
2023-04-02T04:19:42.316Z,7.56
2023-04-02T04:25:00.990Z,7.62
2023-04-02T04:30:19.664Z,7.56
2023-04-02T04:35:38.755Z,7.56
2023-04-02T04:40:56.773Z,7.56
2023-04-02T04:46:15.083Z,7.56
2023-04-02T04:51:33.750Z,7.56
2023-04-02T04:56:52.065Z,7.56
2023-04-02T05:02:10.967Z,7.56
2023-04-02T05:07:29.238Z,7.56
2023-04-02T05:12:47.898Z,7.56
2023-04-02T05:18:06.616Z,7.56
2023-04-02T05:23:25.238Z,7.56
2023-04-02T05:28:43.924Z,7.56
2023-04-02T05:34:02.589Z,7.62
2023-04-02T05:39:21.171Z,7.62
2023-04-02T05:44:39.697Z,7.62
2023-04-02T05:49:58.304Z,7.69
2023-04-02T05:55:16.659Z,7.75
2023-04-02T06:00:37.449Z,7.81
2023-04-02T06:05:57.278Z,7.87
2023-04-02T06:11:16.053Z,8
2023-04-02T06:16:34.361Z,8.13
2023-04-02T06:21:53.050Z,8.19
2023-04-02T06:27:11.671Z,8.19
2023-04-02T06:32:31.429Z,8.19
2023-04-02T06:37:50.376Z,8.25
2023-04-02T06:43:09.089Z,8.25
2023-04-02T06:48:27.951Z,8.31
2023-04-02T06:53:46.233Z,8.38
2023-04-02T06:59:04.584Z,8.38
2023-04-02T07:04:23.238Z,8.44
2023-04-02T07:09:41.466Z,8.44
2023-04-02T07:14:59.718Z,8.5
2023-04-02T07:20:18.428Z,8.56
2023-04-02T07:25:37.063Z,8.63
2023-04-02T07:30:55.296Z,8.63
2023-04-02T07:36:14.047Z,8.81
2023-04-02T07:46:31.475Z,8.69
2023-04-02T07:56:50.449Z,8.75
2023-04-02T08:02:09.359Z,8.94
2023-04-02T08:07:27.987Z,9.13
2023-04-02T08:12:46.854Z,9.19
2023-04-02T08:18:05.542Z,9.19
2023-04-02T08:23:23.836Z,9.31
2023-04-02T08:28:42.197Z,9.38
2023-04-02T08:34:02.066Z,9.31
2023-04-02T08:39:21.901Z,9.69
2023-04-02T08:44:40.381Z,9.81
2023-04-02T08:49:58.689Z,9.88
2023-04-02T08:55:18.454Z,10.13
2023-04-02T09:00:38.018Z,10.13
2023-04-02T09:05:57.172Z,10.56
2023-04-02T09:11:15.860Z,10.69
2023-04-02T09:16:36.494Z,10.69
2023-04-02T09:21:55.141Z,10.63
2023-04-02T09:27:14.670Z,10.63
2023-04-02T09:32:35.676Z,10.81
2023-04-02T09:37:54.766Z,10.88
2023-04-02T09:43:13.878Z,11.12
2023-04-02T09:48:32.946Z,11.94
2023-04-02T09:53:51.977Z,11.69
2023-04-02T09:59:10.402Z,12.25
2023-04-02T10:04:29.016Z,12.44
2023-04-02T10:09:47.682Z,12.63
2023-04-02T10:15:06.569Z,12.44
2023-04-02T10:20:24.797Z,12.06
2023-04-02T10:25:43.049Z,12.75
2023-04-02T10:31:02.505Z,14.38
2023-04-02T10:36:21.703Z,15.19
2023-04-02T10:41:40.036Z,14.13
2023-04-02T10:46:57.751Z,14.06
2023-04-02T10:52:16.152Z,13.44
2023-04-02T10:57:34.289Z,12.81
2023-04-02T11:02:51.740Z,11.38
2023-04-02T11:08:09.816Z,11.06
2023-04-02T11:13:28.043Z,11.25
2023-04-02T11:18:46.670Z,10.94
2023-04-02T11:24:06.341Z,11.25
2023-04-02T11:29:24.623Z,11.06
2023-04-02T11:34:42.901Z,11.31
2023-04-02T11:40:01.725Z,11.5
2023-04-02T11:45:20.977Z,10.81
2023-04-02T11:50:38.921Z,10.44
2023-04-02T11:55:57.028Z,10.69
2023-04-02T12:01:15.623Z,10.88
2023-04-02T12:06:34.292Z,10.56
2023-04-02T12:11:52.981Z,10.5
2023-04-02T12:17:12.457Z,10.69
2023-04-02T12:22:31.107Z,10.63
2023-04-02T12:27:49.807Z,10.94
2023-04-02T12:33:08.559Z,10.94
2023-04-02T12:38:27.419Z,11
2023-04-02T12:43:45.691Z,11.12
2023-04-02T12:49:03.967Z,11.38
2023-04-02T12:54:22.514Z,10.69
2023-04-02T12:59:40.781Z,10.5
2023-04-02T13:04:59.121Z,10.56
2023-04-02T13:10:17.744Z,10.75
2023-04-02T13:15:36.762Z,11.12
2023-04-02T13:20:56.594Z,11.5
2023-04-02T13:26:15.428Z,11.44
2023-04-02T13:31:33.788Z,11.12
2023-04-02T13:36:52.128Z,11.06
2023-04-02T13:42:10.340Z,11.06
2023-04-02T13:47:29.058Z,11.06
2023-04-02T13:52:47.283Z,10.81
2023-04-02T13:58:08.292Z,10.5
2023-04-02T14:03:26.644Z,10.38
2023-04-02T14:08:45.160Z,10.44
2023-04-02T14:14:03.743Z,10.38
2023-04-02T14:19:22.712Z,10.5
2023-04-02T14:24:41.443Z,10.5
2023-04-02T14:29:59.601Z,10.25
2023-04-02T14:35:18.115Z,10.06
2023-04-02T14:40:36.971Z,9.81
2023-04-02T14:45:55.593Z,9.63
2023-04-02T14:51:13.764Z,9.44
2023-04-02T14:56:32.316Z,9.31
2023-04-02T15:01:51.127Z,9.13
2023-04-02T15:07:09.666Z,9.13
2023-04-02T15:12:27.607Z,9
2023-04-02T15:17:45.850Z,8.88
2023-04-02T15:23:04.426Z,8.69
2023-04-02T15:28:23.088Z,8.56
2023-04-02T15:33:41.725Z,8.5
2023-04-02T15:39:01.396Z,8.38
2023-04-02T15:44:19.586Z,8.31
2023-04-02T15:49:37.726Z,8.19
2023-04-02T15:54:56.581Z,8.25
2023-04-02T16:00:15.219Z,8.19
2023-04-02T16:05:33.826Z,8.19
2023-04-02T16:10:52.505Z,8.13
2023-04-02T16:16:11.216Z,8.06
2023-04-02T16:21:29.822Z,7.94
2023-04-02T16:26:48.651Z,7.94
2023-04-02T16:32:06.824Z,7.87
2023-04-02T16:37:25.338Z,7.75
2023-04-02T16:42:43.955Z,7.62
2023-04-02T16:48:02.567Z,7.56
2023-04-02T16:53:21.279Z,7.5
2023-04-02T16:58:41.127Z,7.5
2023-04-02T17:04:00.017Z,7.31
2023-04-02T17:09:20.641Z,7.12
2023-04-02T17:14:38.997Z,7.06
2023-04-02T17:19:58.469Z,7
2023-04-02T17:25:18.091Z,6.87
2023-04-02T17:30:37.253Z,6.87
2023-04-02T17:35:55.389Z,6.81
2023-04-02T17:41:13.955Z,6.75
2023-04-02T17:46:32.552Z,6.69
2023-04-02T17:51:52.053Z,6.56
2023-04-02T17:57:10.801Z,6.5
2023-04-02T18:02:29.546Z,6.37
2023-04-02T18:07:48.017Z,6.31
2023-04-02T18:13:06.644Z,6.25
2023-04-02T18:18:26.307Z,6.12
2023-04-02T18:23:44.983Z,6.06
2023-04-02T18:29:03.717Z,5.94
2023-04-02T18:34:22.372Z,5.94
2023-04-02T18:39:40.854Z,5.87
2023-04-02T18:44:59.122Z,5.81
2023-04-02T18:50:17.544Z,5.75
2023-04-02T18:55:35.727Z,5.62
2023-04-02T19:00:54.413Z,5.5
2023-04-02T19:06:13.097Z,5.44
2023-04-02T19:11:31.756Z,5.44
2023-04-02T19:16:50.418Z,5.31
2023-04-02T19:22:09.009Z,5.31
2023-04-02T19:27:27.768Z,5.25
2023-04-02T19:37:53.174Z,5.06
2023-04-02T19:48:12.220Z,4.94
2023-04-02T19:53:30.892Z,4.81
2023-04-02T19:58:49.236Z,4.81
2023-04-02T20:04:07.820Z,4.81
2023-04-02T20:09:26.007Z,4.75
2023-04-02T20:14:44.615Z,4.75
2023-04-02T20:20:03.036Z,4.75
2023-04-02T20:25:21.441Z,4.69
2023-04-02T20:30:40.399Z,4.62
2023-04-02T20:35:58.438Z,4.62
2023-04-02T20:41:16.916Z,4.56
2023-04-02T20:46:35.490Z,4.56
2023-04-02T20:51:54.070Z,4.44
2023-04-02T20:57:12.784Z,4.25
2023-04-02T21:02:30.938Z,4.06
2023-04-02T21:07:49.177Z,3.94
2023-04-02T21:13:07.611Z,3.94
2023-04-02T21:18:26.199Z,4.12
2023-04-02T21:23:45.014Z,4.19
2023-04-02T21:29:03.852Z,4.25
2023-04-02T21:34:22.499Z,4.25
2023-04-02T21:39:41.296Z,4.31
2023-04-02T21:45:00.075Z,4.25
2023-04-02T21:50:18.719Z,4.25
2023-04-02T21:55:37.459Z,4.31
2023-04-02T22:00:58.838Z,4.25
2023-04-02T22:06:17.084Z,4.25
2023-04-02T22:11:35.698Z,4.19
2023-04-02T22:16:54.463Z,4.19
2023-04-02T22:22:12.635Z,4.19
2023-04-02T22:27:30.995Z,4.19
2023-04-02T22:32:49.716Z,4.19
2023-04-02T22:38:08.471Z,4.19
2023-04-02T22:43:26.939Z,4.19
2023-04-02T22:48:45.260Z,4.12
2023-04-02T22:54:04.006Z,4.06
2023-04-02T22:59:22.241Z,3.5
2023-04-02T23:04:40.251Z,3
2023-04-02T23:09:58.380Z,2.87
2023-04-02T23:15:17.018Z,2.81
2023-04-02T23:20:35.879Z,2.37
2023-04-02T23:25:53.939Z,2.12
2023-04-02T23:31:12.585Z,2
2023-04-02T23:36:31.235Z,2
2023-04-02T23:41:49.919Z,2.44
2023-04-02T23:47:08.811Z,2.19
2023-04-02T23:52:27.421Z,2.19
2023-04-02T23:57:46.043Z,2
